createdAt,value
2018-04-23T00:02:17.979Z,14.13
2018-04-23T00:04:57.269Z,12.87
2018-04-23T00:07:36.479Z,13.30
2018-04-23T00:10:14.989Z,12.93
2018-04-23T00:12:54.040Z,12.33
2018-04-23T00:15:32.229Z,12.73
2018-04-23T00:18:10.547Z,12.73
2018-04-23T00:20:49.053Z,12.90
2018-04-23T00:23:27.623Z,12.90
2018-04-23T00:26:08.051Z,12.23
2018-04-23T00:28:48.163Z,12.87
2018-04-23T00:31:27.325Z,12.33
2018-04-23T00:34:07.853Z,13.10
2018-04-23T00:36:46.371Z,13.03
2018-04-23T00:39:24.827Z,12.83
2018-04-23T00:42:04.498Z,13.73
2018-04-23T00:44:42.790Z,13.47
2018-04-23T00:47:21.090Z,14.70
2018-04-23T00:49:59.955Z,14.37
2018-04-23T00:52:38.580Z,14.00
2018-04-23T00:55:17.038Z,14.47
2018-04-23T00:57:55.709Z,13.83
2018-04-23T01:00:34.145Z,13.70
2018-04-23T01:03:13.162Z,14.27
2018-04-23T01:05:52.059Z,14.93
2018-04-23T01:08:30.797Z,13.93
2018-04-23T01:11:09.544Z,14.37
2018-04-23T01:13:47.799Z,13.33
2018-04-23T01:16:26.149Z,13.90
2018-04-23T01:19:05.333Z,14.77
2018-04-23T01:21:43.784Z,14.13
2018-04-23T01:24:21.872Z,15.80
2018-04-23T01:27:01.905Z,15.13
2018-04-23T01:29:40.296Z,14.10
2018-04-23T01:32:19.140Z,14.07
2018-04-23T01:34:58.726Z,13.23
2018-04-23T01:37:37.042Z,14.73
2018-04-23T01:40:15.311Z,14.83
2018-04-23T01:42:54.273Z,14.37
2018-04-23T01:45:33.424Z,14.63
2018-04-23T01:48:11.534Z,15.37
2018-04-23T01:50:50.177Z,14.47
2018-04-23T01:53:28.567Z,16.10
2018-04-23T01:56:07.052Z,17.23
2018-04-23T01:58:45.224Z,18.20
2018-04-23T02:01:24.320Z,17.83
2018-04-23T02:04:02.537Z,17.63
2018-04-23T02:06:42.417Z,18.27
2018-04-23T02:09:21.484Z,17.40
2018-04-23T02:12:00.161Z,16.87
2018-04-23T02:14:39.474Z,17.17
2018-04-23T02:17:22.206Z,16.23
2018-04-23T02:20:00.443Z,14.80
2018-04-23T02:22:39.264Z,12.70
2018-04-23T02:25:17.435Z,14.30
2018-04-23T02:27:56.099Z,13.93
2018-04-23T02:30:34.433Z,12.87
2018-04-23T02:33:12.542Z,13.63
2018-04-23T02:35:50.908Z,13.00
2018-04-23T02:38:29.300Z,13.03
2018-04-23T02:41:07.484Z,13.63
2018-04-23T02:43:46.314Z,13.90
2018-04-23T02:46:25.180Z,12.77
2018-04-23T02:49:04.023Z,12.87
2018-04-23T02:51:42.816Z,13.50
2018-04-23T02:54:21.133Z,13.27
2018-04-23T02:56:59.544Z,13.30
2018-04-23T02:59:38.815Z,13.03
2018-04-23T03:02:17.445Z,12.77
2018-04-23T03:04:55.834Z,13.73
2018-04-23T03:07:33.824Z,12.60
2018-04-23T03:10:12.229Z,13.93
2018-04-23T03:12:50.192Z,14.07
2018-04-23T03:15:29.096Z,13.53
2018-04-23T03:18:07.987Z,12.73
2018-04-23T03:20:46.276Z,13.47
2018-04-23T03:23:24.418Z,14.47
2018-04-23T03:26:03.806Z,13.20
2018-04-23T03:28:42.717Z,12.37
2018-04-23T03:31:20.932Z,13.43
2018-04-23T03:33:59.052Z,13.87
2018-04-23T03:36:38.283Z,13.97
2018-04-23T03:39:16.425Z,13.57
2018-04-23T03:41:55.275Z,13.73
2018-04-23T03:44:33.544Z,12.93
2018-04-23T03:47:12.768Z,12.83
2018-04-23T03:49:52.460Z,12.33
2018-04-23T03:52:35.593Z,13.43
2018-04-23T03:55:13.839Z,12.73
2018-04-23T03:57:55.791Z,13.43
2018-04-23T04:00:34.313Z,12.40
2018-04-23T04:03:17.326Z,13.53
2018-04-23T04:05:56.526Z,12.53
2018-04-23T04:08:35.987Z,13.73
2018-04-23T04:11:15.289Z,13.77
2018-04-23T04:14:10.831Z,12.37
2018-04-23T04:17:05.817Z,14.17
2018-04-23T04:19:44.539Z,12.40
2018-04-23T04:22:22.598Z,13.57
2018-04-23T04:25:02.351Z,14.43
2018-04-23T04:27:40.683Z,12.23
2018-04-23T04:30:19.144Z,13.30
2018-04-23T04:32:57.442Z,13.30
2018-04-23T04:35:36.384Z,12.10
2018-04-23T04:38:15.028Z,12.20
2018-04-23T04:40:54.174Z,11.80
2018-04-23T04:43:32.125Z,11.97
2018-04-23T04:46:10.330Z,12.70
2018-04-23T04:48:49.573Z,12.37
2018-04-23T04:51:28.143Z,12.93
2018-04-23T04:54:06.319Z,12.87
2018-04-23T04:56:44.969Z,13.23
2018-04-23T04:59:23.433Z,13.00
2018-04-23T05:02:02.459Z,11.73
2018-04-23T05:04:43.396Z,13.50
2018-04-23T05:07:24.123Z,12.10
2018-04-23T05:10:02.393Z,12.90
2018-04-23T05:12:44.578Z,13.50
2018-04-23T05:15:23.719Z,13.07
2018-04-23T05:18:03.043Z,12.77
2018-04-23T05:20:42.321Z,12.47
2018-04-23T05:23:22.604Z,12.17
2018-04-23T05:26:01.142Z,11.60
2018-04-23T05:28:43.101Z,12.37
2018-04-23T05:31:23.089Z,12.60
2018-04-23T05:34:03.212Z,12.70
2018-04-23T05:36:45.347Z,13.53
2018-04-23T05:39:25.407Z,12.57
2018-04-23T05:42:07.332Z,12.40
2018-04-23T05:44:46.462Z,11.80
2018-04-23T05:47:27.881Z,12.63
2018-04-23T05:50:05.891Z,11.67
2018-04-23T05:52:44.036Z,10.90
2018-04-23T05:55:25.428Z,11.60
2018-04-23T05:58:08.951Z,12.10
2018-04-23T06:00:47.971Z,11.17
2018-04-23T06:03:29.010Z,11.43
2018-04-23T06:06:09.476Z,11.20
2018-04-23T06:08:47.903Z,12.07
2018-04-23T06:11:31.473Z,11.10
2018-04-23T06:14:18.772Z,10.67
2018-04-23T06:17:04.906Z,11.37
2018-04-23T06:19:45.172Z,10.50
2018-04-23T06:22:28.975Z,8.87
2018-04-23T06:25:10.595Z,10.20
2018-04-23T06:27:51.272Z,10.47
2018-04-23T06:30:31.564Z,8.67
2018-04-23T06:33:11.930Z,8.37
2018-04-23T06:35:57.829Z,9.60
2018-04-23T06:38:41.388Z,7.97
2018-04-23T06:41:20.798Z,6.17
2018-04-23T06:43:59.689Z,5.73
2018-04-23T06:46:40.224Z,6.47
2018-04-23T06:49:18.603Z,5.57
2018-04-23T06:52:02.282Z,6.53
2018-04-23T06:54:43.219Z,5.50
2018-04-23T06:57:22.638Z,6.47
2018-04-23T07:00:03.684Z,6.30
2018-04-23T07:02:42.527Z,6.20
2018-04-23T07:05:26.892Z,5.90
2018-04-23T07:08:13.107Z,5.60
2018-04-23T07:11:00.154Z,5.87
2018-04-23T07:13:41.444Z,5.60
2018-04-23T07:16:22.364Z,5.53
2018-04-23T07:19:00.709Z,5.90
2018-04-23T07:21:40.879Z,5.63
2018-04-23T07:24:20.147Z,5.37
2018-04-23T07:27:01.231Z,5.90
2018-04-23T07:29:40.194Z,5.53
2018-04-23T07:32:20.613Z,5.57
2018-04-23T07:34:59.148Z,5.30
2018-04-23T07:37:40.773Z,6.00
2018-04-23T07:40:20.782Z,6.60
2018-04-23T07:43:05.704Z,6.57
2018-04-23T07:45:43.738Z,6.03
2018-04-23T07:48:22.016Z,6.63
2018-04-23T07:51:03.519Z,7.37
2018-04-23T07:53:42.266Z,6.27
2018-04-23T07:56:26.688Z,7.43
2018-04-23T07:59:04.923Z,7.20
2018-04-23T08:01:44.440Z,6.67
2018-04-23T08:04:24.608Z,6.53
2018-04-23T08:07:02.855Z,6.47
2018-04-23T08:09:44.111Z,5.97
2018-04-23T08:12:23.393Z,6.77
2018-04-23T08:17:49.810Z,5.70
2018-04-23T08:20:28.058Z,5.67
2018-04-23T08:23:06.843Z,6.07
2018-04-23T08:25:45.968Z,6.07
2018-04-23T08:28:27.717Z,6.00
2018-04-23T08:31:07.469Z,6.43
2018-04-23T08:33:46.843Z,6.17
2018-04-23T08:36:28.289Z,6.57
2018-04-23T08:39:08.377Z,5.90
2018-04-23T08:41:47.940Z,6.00
2018-04-23T08:44:29.863Z,7.13
2018-04-23T08:47:08.920Z,6.03
2018-04-23T08:49:47.817Z,6.40
2018-04-23T08:52:30.119Z,6.30
2018-04-23T08:55:08.375Z,6.00
2018-04-23T08:57:48.699Z,5.93
2018-04-23T09:00:28.882Z,6.50
2018-04-23T09:03:11.466Z,6.00
2018-04-23T09:05:50.450Z,5.83
2018-04-23T09:08:31.717Z,5.87
2018-04-23T09:11:10.371Z,6.10
2018-04-23T09:13:50.021Z,6.33
2018-04-23T09:16:31.596Z,5.80
2018-04-23T09:19:10.672Z,6.47
2018-04-23T09:21:53.403Z,6.17
2018-04-23T09:24:31.531Z,5.90
2018-04-23T09:27:10.876Z,5.67
2018-04-23T09:29:52.967Z,6.33
2018-04-23T09:32:33.321Z,5.90
2018-04-23T09:35:12.893Z,5.57
2018-04-23T09:38:01.367Z,5.20
2018-04-23T09:40:39.750Z,6.27
2018-04-23T09:43:17.768Z,6.00
2018-04-23T09:45:57.295Z,6.07
2018-04-23T09:48:35.341Z,7.00
2018-04-23T09:51:15.563Z,6.10
2018-04-23T09:53:55.304Z,6.10
2018-04-23T09:56:38.053Z,6.90
2018-04-23T09:59:16.830Z,6.83
2018-04-23T10:01:57.201Z,5.50
2018-04-23T10:04:37.758Z,6.70
2018-04-23T10:07:16.501Z,5.77
2018-04-23T10:09:58.077Z,5.87
2018-04-23T10:12:36.782Z,7.20
2018-04-23T10:15:16.449Z,4.90
2018-04-23T10:18:00.185Z,6.77
2018-04-23T10:20:38.608Z,6.77
2018-04-23T10:23:17.998Z,6.23
2018-04-23T10:25:59.299Z,6.43
2018-04-23T10:28:38.463Z,5.80
2018-04-23T10:31:20.391Z,6.80
2018-04-23T10:34:00.122Z,5.73
2018-04-23T10:36:43.040Z,6.33
2018-04-23T10:42:13.659Z,4.73
2018-04-23T10:45:04.629Z,6.60
2018-04-23T10:47:42.918Z,5.87
2018-04-23T10:50:23.456Z,6.40
2018-04-23T10:53:02.357Z,5.60
2018-04-23T10:55:43.087Z,5.30
2018-04-23T10:58:28.030Z,5.20
2018-04-23T11:01:07.931Z,4.97
2018-04-23T11:03:48.586Z,5.93
2018-04-23T11:06:27.027Z,7.37
2018-04-23T11:09:06.056Z,6.43
2018-04-23T11:11:52.515Z,4.57
2018-04-23T11:14:30.954Z,5.53
2018-04-23T11:17:22.587Z,5.10
2018-04-23T11:20:05.227Z,4.63
2018-04-23T11:22:47.073Z,5.70
2018-04-23T11:25:26.207Z,5.77
2018-04-23T11:28:05.725Z,5.60
2018-04-23T11:30:46.219Z,5.20
2018-04-23T11:33:25.941Z,5.53
2018-04-23T11:36:08.270Z,5.20
2018-04-23T11:38:46.680Z,5.03
2018-04-23T11:41:31.192Z,4.40
2018-04-23T11:44:25.269Z,4.80
2018-04-23T11:47:11.065Z,4.87
2018-04-23T11:49:49.137Z,5.00
2018-04-23T11:52:33.866Z,4.83
2018-04-23T11:55:18.176Z,5.40
2018-04-23T11:58:08.947Z,5.63
2018-04-23T12:01:06.606Z,4.63
2018-04-23T12:03:52.175Z,5.37
2018-04-23T12:06:32.014Z,4.70
2018-04-23T12:09:16.244Z,4.43
2018-04-23T12:12:00.283Z,5.47
2018-04-23T12:14:54.346Z,5.10
2018-04-23T12:17:34.768Z,5.53
2018-04-23T12:20:14.053Z,4.30
2018-04-23T12:23:00.447Z,5.40
2018-04-23T12:25:39.514Z,5.30
2018-04-23T12:28:17.864Z,5.20
2018-04-23T12:30:57.069Z,5.37
2018-04-23T12:33:35.268Z,5.17
2018-04-23T12:36:15.474Z,5.67
2018-04-23T12:38:54.637Z,5.27
2018-04-23T12:41:33.521Z,5.67
2018-04-23T12:44:15.236Z,4.97
2018-04-23T12:46:56.138Z,5.37
2018-04-23T12:49:36.182Z,4.70
2018-04-23T12:52:15.768Z,5.40
2018-04-23T12:54:55.846Z,5.07
2018-04-23T12:57:36.672Z,5.07
2018-04-23T13:00:26.485Z,4.93
2018-04-23T13:03:05.580Z,6.33
2018-04-23T13:05:52.299Z,5.47
2018-04-23T13:08:34.695Z,5.17
2018-04-23T13:11:16.644Z,6.20
2018-04-23T13:13:55.923Z,5.93
2018-04-23T13:16:34.053Z,5.43
2018-04-23T13:19:13.183Z,5.10
2018-04-23T13:21:53.570Z,5.47
2018-04-23T13:24:32.902Z,4.93
2018-04-23T13:27:19.814Z,5.33
2018-04-23T13:30:12.074Z,6.53
2018-04-23T13:33:00.121Z,5.10
2018-04-23T13:35:44.226Z,5.40
2018-04-23T13:38:24.276Z,5.83
2018-04-23T13:41:06.547Z,6.10
2018-04-23T13:43:44.709Z,5.90
2018-04-23T13:46:26.470Z,6.37
2018-04-23T13:49:05.632Z,6.50
2018-04-23T13:51:45.138Z,7.80
2018-04-23T13:54:28.384Z,8.07
2018-04-23T13:57:08.869Z,6.50
2018-04-23T13:59:52.479Z,1.93
2018-04-23T14:02:34.456Z,1.20
2018-04-23T14:05:16.339Z,1.40
2018-04-23T14:08:03.759Z,1.00
2018-04-23T14:10:53.855Z,1.00
2018-04-23T14:13:43.508Z,1.10
2018-04-23T14:16:32.671Z,1.93
2018-04-23T14:19:17.805Z,1.53
2018-04-23T14:21:59.211Z,1.10
2018-04-23T14:24:37.316Z,1.20
2018-04-23T14:27:16.411Z,1.20
2018-04-23T14:29:55.836Z,1.00
2018-04-23T14:32:48.867Z,1.43
2018-04-23T14:38:28.246Z,1.20
2018-04-23T14:41:10.498Z,3.10
2018-04-23T14:43:54.274Z,1.13
2018-04-23T14:46:33.170Z,1.70
2018-04-23T14:49:17.085Z,1.00
2018-04-23T14:51:55.871Z,1.20
2018-04-23T14:54:35.197Z,1.13
2018-04-23T14:57:13.671Z,1.20
2018-04-23T14:59:52.868Z,0.93
2018-04-23T15:02:32.139Z,0.90
2018-04-23T15:05:24.187Z,3.40
2018-04-23T15:08:03.072Z,1.13
2018-04-23T15:10:41.160Z,1.10
2018-04-23T15:13:19.482Z,1.40
2018-04-23T15:15:58.288Z,1.43
2018-04-23T15:18:37.163Z,1.23
2018-04-23T15:21:16.163Z,0.90
2018-04-23T15:23:55.645Z,0.93
2018-04-23T15:26:37.748Z,1.67
2018-04-23T15:29:19.362Z,1.10
2018-04-23T15:31:57.553Z,1.00
2018-04-23T15:34:38.347Z,0.90
2018-04-23T15:37:17.165Z,1.27
2018-04-23T15:39:56.887Z,1.00
2018-04-23T15:42:38.145Z,1.20
2018-04-23T15:45:16.422Z,1.07
2018-04-23T15:47:56.144Z,1.20
2018-04-23T15:50:36.027Z,1.00
2018-04-23T15:53:14.426Z,0.90
2018-04-23T15:55:53.471Z,0.90
2018-04-23T15:58:31.973Z,1.07
2018-04-23T16:01:11.082Z,0.87
2018-04-23T16:03:52.407Z,1.07
2018-04-23T16:06:31.838Z,1.20
2018-04-23T16:09:09.997Z,1.37
2018-04-23T16:11:48.939Z,1.53
2018-04-23T16:14:27.332Z,1.47
2018-04-23T16:17:06.959Z,1.20
2018-04-23T16:19:46.315Z,1.30
2018-04-23T16:22:41.519Z,5.00
2018-04-23T16:25:29.765Z,6.20
2018-04-23T16:28:12.550Z,5.23
2018-04-23T16:30:54.683Z,0.90
2018-04-23T16:33:34.222Z,1.10
2018-04-23T16:36:12.582Z,0.90
2018-04-23T16:38:50.829Z,1.10
2018-04-23T16:41:30.399Z,0.90
2018-04-23T16:44:08.473Z,0.90
2018-04-23T16:46:47.604Z,1.10
2018-04-23T16:49:28.771Z,1.00
2018-04-23T16:52:07.131Z,0.80
2018-04-23T16:54:45.375Z,1.00
2018-04-23T16:57:28.016Z,0.90
2018-04-23T17:00:06.484Z,1.23
2018-04-23T17:02:51.244Z,1.17
2018-04-23T17:05:29.455Z,0.90
2018-04-23T17:08:07.885Z,1.00
2018-04-23T17:10:48.291Z,1.23
2018-04-23T17:13:26.520Z,1.13
2018-04-23T17:16:04.659Z,1.10
2018-04-23T17:18:44.669Z,1.40
2018-04-23T17:21:22.910Z,1.00
2018-04-23T17:24:04.059Z,0.70
2018-04-23T17:26:46.264Z,0.80
2018-04-23T17:29:27.265Z,1.13
2018-04-23T17:32:09.248Z,0.90
2018-04-23T17:34:49.308Z,0.97
2018-04-23T17:37:32.545Z,1.20
2018-04-23T17:40:13.417Z,0.63
2018-04-23T17:42:51.722Z,0.90
2018-04-23T17:45:35.992Z,0.90
2018-04-23T17:48:14.396Z,1.33
2018-04-23T17:50:55.191Z,1.33
2018-04-23T17:53:55.349Z,0.93
2018-04-23T17:56:37.341Z,0.83
2018-04-23T17:59:19.639Z,0.70
2018-04-23T18:01:58.491Z,0.80
2018-04-23T18:04:41.265Z,1.07
2018-04-23T18:07:32.858Z,0.83
2018-04-23T18:10:18.725Z,0.60
2018-04-23T18:16:03.714Z,0.80
2018-04-23T18:51:27.118Z,4.53
2018-04-23T18:54:05.843Z,1.23
2018-04-23T18:56:45.035Z,0.70
2018-04-23T18:59:25.018Z,0.90
2018-04-23T19:02:03.561Z,0.83
2018-04-23T19:04:42.790Z,0.90
2018-04-23T19:07:23.330Z,0.80
2018-04-23T19:10:03.905Z,0.60
2018-04-23T19:12:42.845Z,0.80
2018-04-23T19:15:25.244Z,0.70
2018-04-23T19:18:04.999Z,0.77
2018-04-23T19:20:43.337Z,0.87
2018-04-23T19:23:26.077Z,0.53
2018-04-23T19:26:04.947Z,0.70
2018-04-23T19:28:44.713Z,0.80
2018-04-23T19:31:28.220Z,0.77
2018-04-23T19:34:06.435Z,0.70
2018-04-23T19:36:44.695Z,0.80
2018-04-23T19:39:27.806Z,0.70
2018-04-23T19:42:06.137Z,0.63
2018-04-23T19:44:47.696Z,0.83
2018-04-23T19:47:26.870Z,0.50
2018-04-23T19:50:09.254Z,0.60
2018-04-23T19:52:47.770Z,0.70
2018-04-23T19:55:27.774Z,0.90
2018-04-23T19:58:10.754Z,0.77
2018-04-23T20:00:49.880Z,0.80
2018-04-23T20:03:29.418Z,0.97
2018-04-23T20:06:11.715Z,0.70
2018-04-23T20:08:50.156Z,0.83
2018-04-23T20:11:30.114Z,0.70
2018-04-23T20:14:12.550Z,0.83
2018-04-23T20:16:51.021Z,0.70
2018-04-23T20:19:31.307Z,1.00
2018-04-23T20:22:11.663Z,0.60
2018-04-23T20:24:51.696Z,0.70
2018-04-23T20:27:30.058Z,0.47
2018-04-23T20:30:09.303Z,0.73
2018-04-23T20:32:51.429Z,0.60
2018-04-23T20:35:29.771Z,0.63
2018-04-23T20:38:08.442Z,0.80
2018-04-23T20:40:46.827Z,0.60
2018-04-23T20:43:25.316Z,0.60
2018-04-23T20:46:03.457Z,0.50
2018-04-23T20:48:42.515Z,0.80
2018-04-23T20:51:21.717Z,0.47
2018-04-23T20:54:00.317Z,0.60
2018-04-23T20:56:39.609Z,0.80
2018-04-23T20:59:18.725Z,1.00
2018-04-23T21:01:58.955Z,1.07
2018-04-23T21:04:37.752Z,1.00
2018-04-23T21:07:16.662Z,0.80
2018-04-23T21:10:00.753Z,0.93
2018-04-23T21:12:39.141Z,0.80
2018-04-23T21:15:17.522Z,0.50
2018-04-23T21:18:00.717Z,0.80
2018-04-23T21:20:41.316Z,0.70
2018-04-23T21:23:19.754Z,0.97
2018-04-23T21:25:58.930Z,1.53
2018-04-23T21:28:40.308Z,1.60
2018-04-23T21:31:20.627Z,0.97
2018-04-23T21:34:00.588Z,0.77
2018-04-23T21:36:39.527Z,0.50
2018-04-23T21:39:20.471Z,0.60
2018-04-23T21:41:59.555Z,0.40
2018-04-23T21:44:37.875Z,0.83
2018-04-23T21:47:21.187Z,0.50
2018-04-23T21:49:59.536Z,0.60
2018-04-23T21:52:38.141Z,0.60
2018-04-23T21:55:17.353Z,0.90
2018-04-23T21:57:57.502Z,0.80
2018-04-23T22:00:36.573Z,0.93
2018-04-23T22:03:15.435Z,0.70
2018-04-23T22:05:56.484Z,0.80
2018-04-23T22:08:35.761Z,0.80
2018-04-23T22:11:14.656Z,0.50
2018-04-23T22:13:53.108Z,0.60
2018-04-23T22:16:32.251Z,0.40
2018-04-23T22:19:12.768Z,0.70
2018-04-23T22:21:51.856Z,0.80
2018-04-23T22:24:30.030Z,0.80
2018-04-23T22:27:08.497Z,0.97
2018-04-23T22:29:47.615Z,0.80
2018-04-23T22:32:27.241Z,1.13
2018-04-23T22:35:09.836Z,0.60
2018-04-23T22:37:49.993Z,0.70
2018-04-23T22:40:28.585Z,0.80
2018-04-23T22:43:09.857Z,0.60
2018-04-23T22:45:48.469Z,0.50
2018-04-23T22:48:27.818Z,0.63
2018-04-23T22:51:10.169Z,0.70
2018-04-23T22:53:48.526Z,0.70
2018-04-23T22:56:26.907Z,0.67
2018-04-23T22:59:06.698Z,0.50
2018-04-23T23:01:45.461Z,0.70
2018-04-23T23:04:23.844Z,0.50
2018-04-23T23:07:03.138Z,0.50
2018-04-23T23:09:41.974Z,0.50
2018-04-23T23:12:21.415Z,0.50
2018-04-23T23:14:59.693Z,0.60
2018-04-23T23:17:39.629Z,0.40
2018-04-23T23:20:18.265Z,0.47
2018-04-23T23:22:56.302Z,0.40
2018-04-23T23:25:37.231Z,0.50
2018-04-23T23:28:16.341Z,0.47
2018-04-23T23:30:55.530Z,0.60
2018-04-23T23:33:36.067Z,0.53
2018-04-23T23:36:14.724Z,0.40
2018-04-23T23:38:52.833Z,0.37
2018-04-23T23:41:36.057Z,0.30
2018-04-23T23:44:14.540Z,0.60
2018-04-23T23:46:53.936Z,0.40
2018-04-23T23:49:35.030Z,0.70
2018-04-23T23:52:13.503Z,0.63
2018-04-23T23:54:53.507Z,0.40
2018-04-23T23:57:34.132Z,0.60
